Bookmark and Share
Track history (hours):
 

Irish Sea

More information available from US FCC via Universal Licensing System and Coast Guard Vessel Documentation Center.

Last reported at 2014-Apr-21 13:27 UTC. Time now 2014-Apr-25 05:48 UTC.
Position N 40°38' W 074°10'.

Length 152 m; draft 6.8 m.

Type: Ship (hazmat cat B). MMSI: 366910920.

NotesDate/timePositionNaut miles runAvg speedWind from/ knotsBaromVisibWave heightAir tempDewpointWater temp
2014-Apr-21 13:27N 40°38' W 074°10'0 0.0
2014-Apr-21 12:33N 40°38' W 074°10'0 0.0
2014-Apr-21 11:30N 40°38' W 074°10'0 0.0
2014-Apr-21 10:30N 40°38' W 074°10'0 0.0
2014-Apr-21 06:30N 40°38' W 074°10'0 0.0
2014-Apr-21 05:30N 40°38' W 074°10'  
2014-Apr-18 20:28N 40°38' W 074°10'0 0.0
2014-Apr-18 18:25N 40°38' W 074°10'0 0.0
2014-Apr-18 17:28N 40°38' W 074°10'0 0.0
2014-Apr-18 16:28N 40°38' W 074°10'0 0.0
2014-Apr-18 15:19N 40°38' W 074°10'0 0.0
2014-Apr-18 14:28N 40°38' W 074°10'0 0.0
2014-Apr-18 13:22N 40°38' W 074°10'0 0.0
2014-Apr-18 12:10N 40°38' W 074°10'0 0.0
2014-Apr-18 11:22N 40°38' W 074°10'0 0.0
2014-Apr-18 10:28N 40°38' W 074°10'0 0.0
2014-Apr-18 09:22N 40°38' W 074°10'0 0.0
2014-Apr-18 08:33N 40°38' W 074°10'0 0.0
2014-Apr-18 07:21N 40°38' W 074°10'0 0.0
2014-Apr-18 06:21N 40°38' W 074°10'0 0.0
2014-Apr-18 05:27N 40°38' W 074°10'0 0.0
2014-Apr-18 04:33N 40°38' W 074°10'0 0.0
2014-Apr-18 03:18N 40°38' W 074°10'0 0.0
2014-Apr-18 02:33N 40°38' W 074°10'5 4.6
2014-Apr-18 01:33N 40°40' W 074°04'0 0.0
2014-Apr-18 00:33N 40°40' W 074°04'4 3.6
2014-Apr-17 23:33N 40°42' W 074°00'8 0.6
2014-Apr-17 11:05N 40°48' W 073°54'4 0.5
2014-Apr-17 03:34N 40°45' W 073°58'7 7.4
2014-Apr-17 02:34N 40°39' W 074°03'51 7.3
2014-Apr-16 19:34N 39°49' W 073°57'7 7.3
2014-Apr-16 18:34N 39°42' W 074°00'7 7.3
2014-Apr-16 17:33N 39°35' W 074°04'7 7.0
2014-Apr-16 16:32N 39°29' W 074°08'  
2014-Apr-12 03:25N 39°29' W 074°09'8 9.2
2014-Apr-12 02:33N 39°36' W 074°04'9 9.1
2014-Apr-12 01:33N 39°44' W 073°59'49 8.2
2014-Apr-11 19:29N 40°33' W 074°02'7 7.3
2014-Apr-11 18:33N 40°39' W 074°07'2 2.1
2014-Apr-11 17:32N 40°39' W 074°10'0 0.0
2014-Apr-11 15:17N 40°39' W 074°10'0 0.0
2014-Apr-11 14:26N 40°39' W 074°10'0 0.0
2014-Apr-11 13:29N 40°39' W 074°10'  

Dump ship's entire track history

sailing weather and tide predictions

Irish Sea — WDB5555 — position and weather